Aérodrome :
LOGIN :

S'inscrire | Disclaimer

   EN    FR    IT 

 










Légende :    VFR   VFR Marginal   IFR   IFR Intensif   IFR Très Intensif
Visi : 
Plafond : 
>= 8 km
>= 3000ft
5 à 8 km
1000 à 3000 ft
1500m à 5 km
500 à 1000 ft
800 à 1500m
200 à 500 ft
< 800m
< 200 ft
Symboles :   Orages  Brouillard  Fortes neiges  Fortes précipitations  Vent > 20 kt
SIGMETs :   Divers  Orages  Givrage  Turbulence  Onde Orograph.  Cendres Volcan.






- Altitude de l'aérodrome : 423 ft
- Code IATA : PIS


LFBI - Poitiers

DERNIER METAR :
  • 060530Z AUTO 21010KT 5000 BR OVC004 03/03 Q1022

METARs EXPIRÉS :
  • 060500Z AUTO 20010KT 4700 BR OVC003 03/03 Q1022
  • 060430Z AUTO 21009KT 4900 BR OVC003 03/03 Q1022
  • 060400Z AUTO 23007KT 3800 BR OVC002 03/03 Q1022
  • 060330Z AUTO 19005KT 160V220 1000 R21/1400U BR VV/// 02/02 Q1022
  • 060300Z AUTO 20003KT 180V240 1000 0900 R21/1600D BCFG VV/// 01/01 Q1022

TAF TAF LFBI
Valide du 05 à 18h jusqu'au 06 à 18h UTC


051700Z 0518/0618 36005KT 0500 FG VV///
TEMPO 0518/0606 0200
PROB30
TEMPO 0600/0610 3000 BR OVC002
BECMG 0610/0612 20010KT 9999 NSW BKN004



MET'MAP, la Météo Aéronautique d'un coup d'oeil ! - Copyright ORBIFLY Décembre 2007 - Disclaimer

ORBIFLY MET'MAP TEAM :

Programmation & Développement : Alexandra Zaïnal
Sur une idée originale de : Baudouin d'Aumeries
Assistance à la programmation : Marc-Olivier Méhu
Soutien technique & logistique : Manuel Goepfert

Contact : metmap@orbifly.com




SOURCES & CREDITS :

   NOAA